sensor_id;sensor_type;location;lat;lon;timestamp;temperature;humidity
39325;DHT22;25037;49.488;9.900;2023-05-07T00:01:13;15.70;55.40
39325;DHT22;25037;49.488;9.900;2023-05-07T00:03:40;15.70;55.40
39325;DHT22;25037;49.488;9.900;2023-05-07T00:06:08;15.70;55.40
39325;DHT22;25037;49.488;9.900;2023-05-07T00:08:35;15.70;55.40
39325;DHT22;25037;49.488;9.900;2023-05-07T00:11:01;15.70;55.50
39325;DHT22;25037;49.488;9.900;2023-05-07T00:13:28;15.70;55.50
39325;DHT22;25037;49.488;9.900;2023-05-07T00:15:57;15.70;55.50
39325;DHT22;25037;49.488;9.900;2023-05-07T00:18:23;15.70;55.50
39325;DHT22;25037;49.488;9.900;2023-05-07T00:20:50;15.70;55.80
39325;DHT22;25037;49.488;9.900;2023-05-07T00:23:17;15.60;56.00
39325;DHT22;25037;49.488;9.900;2023-05-07T00:25:43;15.50;56.10
39325;DHT22;25037;49.488;9.900;2023-05-07T00:28:10;15.50;56.20
39325;DHT22;25037;49.488;9.900;2023-05-07T00:30:36;15.40;56.40
39325;DHT22;25037;49.488;9.900;2023-05-07T00:33:03;15.40;56.40
39325;DHT22;25037;49.488;9.900;2023-05-07T00:35:29;15.40;56.60
39325;DHT22;25037;49.488;9.900;2023-05-07T00:37:56;15.30;56.70
39325;DHT22;25037;49.488;9.900;2023-05-07T00:40:23;15.30;56.70
39325;DHT22;25037;49.488;9.900;2023-05-07T00:42:49;15.30;56.80
39325;DHT22;25037;49.488;9.900;2023-05-07T00:45:16;15.20;56.80
39325;DHT22;25037;49.488;9.900;2023-05-07T00:47:43;15.30;57.20
39325;DHT22;25037;49.488;9.900;2023-05-07T00:50:10;15.20;57.30
39325;DHT22;25037;49.488;9.900;2023-05-07T00:52:37;15.20;57.50
39325;DHT22;25037;49.488;9.900;2023-05-07T00:55:04;15.10;57.70
39325;DHT22;25037;49.488;9.900;2023-05-07T00:57:33;15.10;57.90
39325;DHT22;25037;49.488;9.900;2023-05-07T01:00:01;15.10;57.90
39325;DHT22;25037;49.488;9.900;2023-05-07T01:02:28;15.00;58.10
39325;DHT22;25037;49.488;9.900;2023-05-07T01:04:55;15.00;58.20
39325;DHT22;25037;49.488;9.900;2023-05-07T01:07:22;14.90;58.40
39325;DHT22;25037;49.488;9.900;2023-05-07T01:09:49;14.80;58.20
39325;DHT22;25037;49.488;9.900;2023-05-07T01:12:16;14.80;58.50
39325;DHT22;25037;49.488;9.900;2023-05-07T01:14:42;14.80;58.70
39325;DHT22;25037;49.488;9.900;2023-05-07T01:17:09;14.80;58.60
39325;DHT22;25037;49.488;9.900;2023-05-07T01:19:36;14.80;58.60
39325;DHT22;25037;49.488;9.900;2023-05-07T01:22:07;14.80;58.50
39325;DHT22;25037;49.488;9.900;2023-05-07T01:24:34;14.80;58.60
39325;DHT22;25037;49.488;9.900;2023-05-07T01:27:02;14.70;58.60
39325;DHT22;25037;49.488;9.900;2023-05-07T01:29:29;14.70;58.70
39325;DHT22;25037;49.488;9.900;2023-05-07T01:31:57;14.70;58.70
39325;DHT22;25037;49.488;9.900;2023-05-07T01:34:25;14.70;58.70
39325;DHT22;25037;49.488;9.900;2023-05-07T01:36:53;14.70;59.00
39325;DHT22;25037;49.488;9.900;2023-05-07T01:39:25;14.60;58.90
39325;DHT22;25037;49.488;9.900;2023-05-07T01:41:52;14.70;58.90
39325;DHT22;25037;49.488;9.900;2023-05-07T01:44:19;14.60;58.80
39325;DHT22;25037;49.488;9.900;2023-05-07T01:46:46;14.60;58.70
39325;DHT22;25037;49.488;9.900;2023-05-07T01:49:13;14.60;58.60
39325;DHT22;25037;49.488;9.900;2023-05-07T01:51:39;14.50;58.50
39325;DHT22;25037;49.488;9.900;2023-05-07T01:54:07;14.60;58.50
39325;DHT22;25037;49.488;9.900;2023-05-07T01:56:34;14.60;58.50
39325;DHT22;25037;49.488;9.900;2023-05-07T01:59:01;14.50;58.60
39325;DHT22;25037;49.488;9.900;2023-05-07T02:01:28;14.50;58.60
39325;DHT22;25037;49.488;9.900;2023-05-07T02:03:55;14.40;58.70
39325;DHT22;25037;49.488;9.900;2023-05-07T02:06:21;14.40;58.70
39325;DHT22;25037;49.488;9.900;2023-05-07T02:08:48;14.40;58.80
39325;DHT22;25037;49.488;9.900;2023-05-07T02:11:14;14.30;58.70
39325;DHT22;25037;49.488;9.900;2023-05-07T02:13:41;14.30;58.70
39325;DHT22;25037;49.488;9.900;2023-05-07T02:16:07;14.30;58.80
39325;DHT22;25037;49.488;9.900;2023-05-07T02:18:34;14.30;58.90
39325;DHT22;25037;49.488;9.900;2023-05-07T02:21:02;14.30;59.00
39325;DHT22;25037;49.488;9.900;2023-05-07T02:23:28;14.20;59.00
39325;DHT22;25037;49.488;9.900;2023-05-07T02:25:55;14.20;59.00
39325;DHT22;25037;49.488;9.900;2023-05-07T02:28:21;14.10;58.90
39325;DHT22;25037;49.488;9.900;2023-05-07T02:30:48;14.10;58.90
39325;DHT22;25037;49.488;9.900;2023-05-07T02:33:14;14.20;59.00
39325;DHT22;25037;49.488;9.900;2023-05-07T02:35:41;14.10;58.90
39325;DHT22;25037;49.488;9.900;2023-05-07T02:38:08;14.20;58.90
39325;DHT22;25037;49.488;9.900;2023-05-07T02:40:37;14.20;58.90
39325;DHT22;25037;49.488;9.900;2023-05-07T02:43:06;14.20;58.90
39325;DHT22;25037;49.488;9.900;2023-05-07T02:45:33;14.20;59.00
39325;DHT22;25037;49.488;9.900;2023-05-07T02:47:59;14.20;59.20
39325;DHT22;25037;49.488;9.900;2023-05-07T02:50:26;14.10;59.30
39325;DHT22;25037;49.488;9.900;2023-05-07T02:52:53;14.10;59.30
39325;DHT22;25037;49.488;9.900;2023-05-07T02:55:20;14.10;59.20
39325;DHT22;25037;49.488;9.900;2023-05-07T02:57:46;14.20;59.20
39325;DHT22;25037;49.488;9.900;2023-05-07T03:00:14;14.20;59.20
39325;DHT22;25037;49.488;9.900;2023-05-07T03:02:41;14.20;59.20
39325;DHT22;25037;49.488;9.900;2023-05-07T03:05:07;14.20;59.10
39325;DHT22;25037;49.488;9.900;2023-05-07T03:07:35;14.30;59.10
39325;DHT22;25037;49.488;9.900;2023-05-07T03:10:02;14.30;59.10
39325;DHT22;25037;49.488;9.900;2023-05-07T03:12:28;14.30;59.10
39325;DHT22;25037;49.488;9.900;2023-05-07T03:14:55;14.30;59.00
39325;DHT22;25037;49.488;9.900;2023-05-07T03:17:22;14.30;59.10
39325;DHT22;25037;49.488;9.900;2023-05-07T03:19:48;14.30;59.20
39325;DHT22;25037;49.488;9.900;2023-05-07T03:22:15;14.30;59.20
39325;DHT22;25037;49.488;9.900;2023-05-07T03:24:41;14.30;59.20
39325;DHT22;25037;49.488;9.900;2023-05-07T03:27:08;14.20;59.20
39325;DHT22;25037;49.488;9.900;2023-05-07T03:29:34;14.20;59.10
39325;DHT22;25037;49.488;9.900;2023-05-07T03:32:01;14.30;59.20
39325;DHT22;25037;49.488;9.900;2023-05-07T03:34:28;14.20;59.20
39325;DHT22;25037;49.488;9.900;2023-05-07T03:36:54;14.20;59.30
39325;DHT22;25037;49.488;9.900;2023-05-07T03:39:21;14.20;59.30
39325;DHT22;25037;49.488;9.900;2023-05-07T03:41:47;14.10;59.40
39325;DHT22;25037;49.488;9.900;2023-05-07T03:44:14;14.10;59.50
39325;DHT22;25037;49.488;9.900;2023-05-07T03:46:40;14.10;59.60
39325;DHT22;25037;49.488;9.900;2023-05-07T03:49:07;14.10;59.80
39325;DHT22;25037;49.488;9.900;2023-05-07T03:51:33;14.00;59.90
39325;DHT22;25037;49.488;9.900;2023-05-07T03:54:00;14.00;60.00
39325;DHT22;25037;49.488;9.900;2023-05-07T03:56:26;14.00;60.20
39325;DHT22;25037;49.488;9.900;2023-05-07T03:58:54;14.00;60.20
39325;DHT22;25037;49.488;9.900;2023-05-07T04:01:20;14.00;60.10
39325;DHT22;25037;49.488;9.900;2023-05-07T04:03:47;14.00;60.10
39325;DHT22;25037;49.488;9.900;2023-05-07T04:06:15;14.00;60.00
39325;DHT22;25037;49.488;9.900;2023-05-07T04:08:42;14.10;60.10
39325;DHT22;25037;49.488;9.900;2023-05-07T04:11:08;14.10;60.10
39325;DHT22;25037;49.488;9.900;2023-05-07T04:13:35;14.10;60.30
39325;DHT22;25037;49.488;9.900;2023-05-07T04:16:02;14.10;60.50
39325;DHT22;25037;49.488;9.900;2023-05-07T04:18:29;14.20;60.60
39325;DHT22;25037;49.488;9.900;2023-05-07T04:20:55;14.20;60.60
39325;DHT22;25037;49.488;9.900;2023-05-07T04:23:22;14.20;60.50
39325;DHT22;25037;49.488;9.900;2023-05-07T04:25:49;14.30;60.60
39325;DHT22;25037;49.488;9.900;2023-05-07T04:28:16;14.30;60.80
39325;DHT22;25037;49.488;9.900;2023-05-07T04:30:42;14.30;60.90
39325;DHT22;25037;49.488;9.900;2023-05-07T04:33:09;14.40;60.70
39325;DHT22;25037;49.488;9.900;2023-05-07T04:35:36;14.40;60.70
39325;DHT22;25037;49.488;9.900;2023-05-07T04:38:03;14.50;60.60
39325;DHT22;25037;49.488;9.900;2023-05-07T04:40:30;14.50;60.60
39325;DHT22;25037;49.488;9.900;2023-05-07T04:42:56;14.70;60.60
39325;DHT22;25037;49.488;9.900;2023-05-07T04:45:23;14.70;60.40
39325;DHT22;25037;49.488;9.900;2023-05-07T04:47:49;14.80;60.50
39325;DHT22;25037;49.488;9.900;2023-05-07T04:50:16;14.90;60.60
39325;DHT22;25037;49.488;9.900;2023-05-07T04:52:44;14.90;60.60
39325;DHT22;25037;49.488;9.900;2023-05-07T04:55:10;14.90;60.60
39325;DHT22;25037;49.488;9.900;2023-05-07T04:57:37;15.00;60.60
39325;DHT22;25037;49.488;9.900;2023-05-07T05:00:06;15.00;60.90
39325;DHT22;25037;49.488;9.900;2023-05-07T05:02:35;15.00;61.10
39325;DHT22;25037;49.488;9.900;2023-05-07T05:05:01;15.10;61.10
39325;DHT22;25037;49.488;9.900;2023-05-07T05:07:28;15.10;61.00
39325;DHT22;25037;49.488;9.900;2023-05-07T05:09:55;15.10;60.90
39325;DHT22;25037;49.488;9.900;2023-05-07T05:12:21;15.20;60.80
39325;DHT22;25037;49.488;9.900;2023-05-07T05:14:48;15.30;60.70
39325;DHT22;25037;49.488;9.900;2023-05-07T05:17:15;15.30;60.70
39325;DHT22;25037;49.488;9.900;2023-05-07T05:19:41;15.50;60.60
39325;DHT22;25037;49.488;9.900;2023-05-07T05:22:08;15.50;60.50
39325;DHT22;25037;49.488;9.900;2023-05-07T05:24:34;15.60;60.40
39325;DHT22;25037;49.488;9.900;2023-05-07T05:27:01;15.70;60.20
39325;DHT22;25037;49.488;9.900;2023-05-07T05:29:28;15.80;60.10
39325;DHT22;25037;49.488;9.900;2023-05-07T05:31:55;16.00;60.00
39325;DHT22;25037;49.488;9.900;2023-05-07T05:34:22;16.10;59.80
39325;DHT22;25037;49.488;9.900;2023-05-07T05:36:49;16.30;59.70
39325;DHT22;25037;49.488;9.900;2023-05-07T05:39:15;16.50;59.50
39325;DHT22;25037;49.488;9.900;2023-05-07T05:41:42;16.60;59.40
39325;DHT22;25037;49.488;9.900;2023-05-07T05:44:08;16.70;59.30
39325;DHT22;25037;49.488;9.900;2023-05-07T05:46:35;16.80;59.20
39325;DHT22;25037;49.488;9.900;2023-05-07T05:49:02;16.90;59.20
39325;DHT22;25037;49.488;9.900;2023-05-07T05:51:29;17.00;59.10
39325;DHT22;25037;49.488;9.900;2023-05-07T05:53:55;17.10;59.10
39325;DHT22;25037;49.488;9.900;2023-05-07T05:56:22;17.20;59.10
39325;DHT22;25037;49.488;9.900;2023-05-07T05:58:48;17.30;59.00
39325;DHT22;25037;49.488;9.900;2023-05-07T06:01:15;17.40;58.90
39325;DHT22;25037;49.488;9.900;2023-05-07T06:03:43;17.50;58.90
39325;DHT22;25037;49.488;9.900;2023-05-07T06:06:09;17.70;58.80
39325;DHT22;25037;49.488;9.900;2023-05-07T06:08:36;17.80;58.60
39325;DHT22;25037;49.488;9.900;2023-05-07T06:11:02;17.90;58.50
39325;DHT22;25037;49.488;9.900;2023-05-07T06:13:29;18.10;58.40
39325;DHT22;25037;49.488;9.900;2023-05-07T06:15:56;18.20;58.30
39325;DHT22;25037;49.488;9.900;2023-05-07T06:18:23;18.30;58.20
39325;DHT22;25037;49.488;9.900;2023-05-07T06:20:49;18.30;58.10
39325;DHT22;25037;49.488;9.900;2023-05-07T06:23:16;18.40;58.10
39325;DHT22;25037;49.488;9.900;2023-05-07T06:25:49;18.50;58.10
39325;DHT22;25037;49.488;9.900;2023-05-07T06:28:19;18.60;58.00
39325;DHT22;25037;49.488;9.900;2023-05-07T06:30:45;18.70;57.90
39325;DHT22;25037;49.488;9.900;2023-05-07T06:33:12;18.80;57.80
39325;DHT22;25037;49.488;9.900;2023-05-07T06:35:39;18.90;57.70
39325;DHT22;25037;49.488;9.900;2023-05-07T06:38:05;19.00;57.50
39325;DHT22;25037;49.488;9.900;2023-05-07T06:40:32;19.20;57.30
39325;DHT22;25037;49.488;9.900;2023-05-07T06:42:58;19.40;57.10
39325;DHT22;25037;49.488;9.900;2023-05-07T06:45:25;19.60;57.00
39325;DHT22;25037;49.488;9.900;2023-05-07T06:47:51;19.70;56.80
39325;DHT22;25037;49.488;9.900;2023-05-07T06:50:18;19.80;56.70
39325;DHT22;25037;49.488;9.900;2023-05-07T06:52:44;19.90;56.70
39325;DHT22;25037;49.488;9.900;2023-05-07T06:55:11;19.90;56.60
39325;DHT22;25037;49.488;9.900;2023-05-07T06:57:38;19.90;56.70
39325;DHT22;25037;49.488;9.900;2023-05-07T07:00:05;19.90;56.60
39325;DHT22;25037;49.488;9.900;2023-05-07T07:02:33;20.00;56.50
39325;DHT22;25037;49.488;9.900;2023-05-07T07:05:00;20.20;56.30
39325;DHT22;25037;49.488;9.900;2023-05-07T07:07:26;20.40;56.10
39325;DHT22;25037;49.488;9.900;2023-05-07T07:09:53;20.60;55.80
39325;DHT22;25037;49.488;9.900;2023-05-07T07:12:19;20.80;55.60
39325;DHT22;25037;49.488;9.900;2023-05-07T07:14:46;21.00;55.20
39325;DHT22;25037;49.488;9.900;2023-05-07T07:17:12;21.10;54.90
39325;DHT22;25037;49.488;9.900;2023-05-07T07:19:39;21.20;54.90
39325;DHT22;25037;49.488;9.900;2023-05-07T07:22:05;21.30;54.80
39325;DHT22;25037;49.488;9.900;2023-05-07T07:24:32;21.50;54.70
39325;DHT22;25037;49.488;9.900;2023-05-07T07:26:59;21.60;54.70
39325;DHT22;25037;49.488;9.900;2023-05-07T07:29:25;21.80;54.50
39325;DHT22;25037;49.488;9.900;2023-05-07T07:31:53;22.00;54.30
39325;DHT22;25037;49.488;9.900;2023-05-07T07:34:19;22.20;54.00
39325;DHT22;25037;49.488;9.900;2023-05-07T07:36:46;22.30;53.70
39325;DHT22;25037;49.488;9.900;2023-05-07T07:39:13;22.40;53.40
39325;DHT22;25037;49.488;9.900;2023-05-07T07:41:39;22.40;52.90
39325;DHT22;25037;49.488;9.900;2023-05-07T07:44:06;22.30;52.60
39325;DHT22;25037;49.488;9.900;2023-05-07T07:46:34;22.50;52.60
39325;DHT22;25037;49.488;9.900;2023-05-07T07:49:01;22.70;52.40
39325;DHT22;25037;49.488;9.900;2023-05-07T07:51:27;22.90;52.20
39325;DHT22;25037;49.488;9.900;2023-05-07T07:53:54;22.90;52.00
39325;DHT22;25037;49.488;9.900;2023-05-07T07:56:20;22.90;51.70
39325;DHT22;25037;49.488;9.900;2023-05-07T07:58:47;23.00;51.60
39325;DHT22;25037;49.488;9.900;2023-05-07T08:01:14;23.30;51.60
39325;DHT22;25037;49.488;9.900;2023-05-07T08:03:40;23.50;51.20
39325;DHT22;25037;49.488;9.900;2023-05-07T08:06:07;23.70;50.90
39325;DHT22;25037;49.488;9.900;2023-05-07T08:08:34;23.80;51.00
39325;DHT22;25037;49.488;9.900;2023-05-07T08:11:00;23.80;51.10
39325;DHT22;25037;49.488;9.900;2023-05-07T08:13:27;23.80;50.80
39325;DHT22;25037;49.488;9.900;2023-05-07T08:15:54;23.70;50.80
39325;DHT22;25037;49.488;9.900;2023-05-07T08:18:20;23.60;51.00
39325;DHT22;25037;49.488;9.900;2023-05-07T08:20:47;23.50;50.70
39325;DHT22;25037;49.488;9.900;2023-05-07T08:23:13;23.50;50.60
39325;DHT22;25037;49.488;9.900;2023-05-07T08:25:40;23.50;50.70
39325;DHT22;25037;49.488;9.900;2023-05-07T08:28:08;23.50;50.70
39325;DHT22;25037;49.488;9.900;2023-05-07T08:30:35;23.60;50.50
39325;DHT22;25037;49.488;9.900;2023-05-07T08:33:02;23.70;50.40
39325;DHT22;25037;49.488;9.900;2023-05-07T08:35:29;23.90;50.20
39325;DHT22;25037;49.488;9.900;2023-05-07T08:37:56;24.20;49.90
39325;DHT22;25037;49.488;9.900;2023-05-07T08:40:24;24.30;49.80
39325;DHT22;25037;49.488;9.900;2023-05-07T08:42:52;24.60;49.70
39325;DHT22;25037;49.488;9.900;2023-05-07T08:45:19;24.80;49.30
39325;DHT22;25037;49.488;9.900;2023-05-07T08:47:46;25.10;49.20
39325;DHT22;25037;49.488;9.900;2023-05-07T08:50:13;25.20;48.50
39325;DHT22;25037;49.488;9.900;2023-05-07T08:52:40;25.30;48.40
39325;DHT22;25037;49.488;9.900;2023-05-07T08:55:07;25.30;48.60
39325;DHT22;25037;49.488;9.900;2023-05-07T08:57:34;25.30;48.60
39325;DHT22;25037;49.488;9.900;2023-05-07T09:00:02;25.40;48.50
39325;DHT22;25037;49.488;9.900;2023-05-07T09:02:29;25.50;48.50
39325;DHT22;25037;49.488;9.900;2023-05-07T09:04:56;25.70;48.60
39325;DHT22;25037;49.488;9.900;2023-05-07T09:07:22;26.00;48.20
39325;DHT22;25037;49.488;9.900;2023-05-07T09:09:49;26.20;47.60
39325;DHT22;25037;49.488;9.900;2023-05-07T09:12:17;26.40;47.70
39325;DHT22;25037;49.488;9.900;2023-05-07T09:14:44;26.70;47.80
39325;DHT22;25037;49.488;9.900;2023-05-07T09:17:12;26.90;47.40
39325;DHT22;25037;49.488;9.900;2023-05-07T09:19:39;27.00;47.00
39325;DHT22;25037;49.488;9.900;2023-05-07T09:22:06;27.10;47.00
39325;DHT22;25037;49.488;9.900;2023-05-07T09:24:35;27.10;47.00
39325;DHT22;25037;49.488;9.900;2023-05-07T09:27:04;27.10;46.80
39325;DHT22;25037;49.488;9.900;2023-05-07T09:29:31;27.20;46.80
39325;DHT22;25037;49.488;9.900;2023-05-07T09:32:02;27.30;46.00
39325;DHT22;25037;49.488;9.900;2023-05-07T09:34:30;27.30;44.80
39325;DHT22;25037;49.488;9.900;2023-05-07T09:37:03;27.20;45.00
39325;DHT22;25037;49.488;9.900;2023-05-07T09:39:38;27.20;45.30
39325;DHT22;25037;49.488;9.900;2023-05-07T09:42:05;27.40;45.00
39325;DHT22;25037;49.488;9.900;2023-05-07T09:44:32;27.70;45.20
39325;DHT22;25037;49.488;9.900;2023-05-07T09:46:59;27.70;45.20
39325;DHT22;25037;49.488;9.900;2023-05-07T09:49:28;27.90;44.90
39325;DHT22;25037;49.488;9.900;2023-05-07T09:51:56;28.00;44.50
39325;DHT22;25037;49.488;9.900;2023-05-07T09:54:25;28.10;44.50
39325;DHT22;25037;49.488;9.900;2023-05-07T09:56:52;28.20;44.20
39325;DHT22;25037;49.488;9.900;2023-05-07T09:59:19;28.30;43.90
39325;DHT22;25037;49.488;9.900;2023-05-07T10:01:46;28.40;44.00
39325;DHT22;25037;49.488;9.900;2023-05-07T10:04:13;28.40;43.40
39325;DHT22;25037;49.488;9.900;2023-05-07T10:06:40;28.50;43.30
39325;DHT22;25037;49.488;9.900;2023-05-07T10:09:07;28.50;43.40
39325;DHT22;25037;49.488;9.900;2023-05-07T10:11:34;28.60;43.60
39325;DHT22;25037;49.488;9.900;2023-05-07T10:14:01;28.70;43.10
39325;DHT22;25037;49.488;9.900;2023-05-07T10:16:32;28.70;43.00
39325;DHT22;25037;49.488;9.900;2023-05-07T10:18:59;28.70;42.80
39325;DHT22;25037;49.488;9.900;2023-05-07T10:21:27;28.60;42.40
39325;DHT22;25037;49.488;9.900;2023-05-07T10:23:59;28.50;42.40
39325;DHT22;25037;49.488;9.900;2023-05-07T10:26:28;28.50;42.50
39325;DHT22;25037;49.488;9.900;2023-05-07T10:28:57;28.70;42.40
39325;DHT22;25037;49.488;9.900;2023-05-07T10:34:10;29.20;41.80
39325;DHT22;25037;49.488;9.900;2023-05-07T10:36:37;29.10;41.80
39325;DHT22;25037;49.488;9.900;2023-05-07T10:39:04;29.20;41.20
39325;DHT22;25037;49.488;9.900;2023-05-07T10:41:31;29.40;41.40
39325;DHT22;25037;49.488;9.900;2023-05-07T10:43:58;29.60;41.00
39325;DHT22;25037;49.488;9.900;2023-05-07T10:46:27;29.50;41.30
39325;DHT22;25037;49.488;9.900;2023-05-07T10:51:30;29.40;41.20
39325;DHT22;25037;49.488;9.900;2023-05-07T10:56:38;29.00;40.90
39325;DHT22;25037;49.488;9.900;2023-05-07T11:01:50;28.60;41.30
39325;DHT22;25037;49.488;9.900;2023-05-07T11:04:18;28.60;41.60
39325;DHT22;25037;49.488;9.900;2023-05-07T11:20:20;28.10;41.40
39325;DHT22;25037;49.488;9.900;2023-05-07T11:22:47;27.90;41.60
39325;DHT22;25037;49.488;9.900;2023-05-07T11:25:17;27.90;41.20
39325;DHT22;25037;49.488;9.900;2023-05-07T11:27:47;28.00;41.50
39325;DHT22;25037;49.488;9.900;2023-05-07T11:30:17;28.00;41.70
39325;DHT22;25037;49.488;9.900;2023-05-07T11:32:48;28.00;41.30
39325;DHT22;25037;49.488;9.900;2023-05-07T11:35:15;27.90;41.40
39325;DHT22;25037;49.488;9.900;2023-05-07T11:37:42;28.00;41.60
39325;DHT22;25037;49.488;9.900;2023-05-07T11:40:11;27.90;41.80
39325;DHT22;25037;49.488;9.900;2023-05-07T11:42:40;27.90;42.00
39325;DHT22;25037;49.488;9.900;2023-05-07T11:45:09;27.80;42.10
39325;DHT22;25037;49.488;9.900;2023-05-07T11:47:36;27.80;41.70
39325;DHT22;25037;49.488;9.900;2023-05-07T11:50:06;27.60;41.50
39325;DHT22;25037;49.488;9.900;2023-05-07T11:52:34;27.30;41.50
39325;DHT22;25037;49.488;9.900;2023-05-07T11:55:01;27.10;41.90
39325;DHT22;25037;49.488;9.900;2023-05-07T11:57:28;27.00;42.00
39325;DHT22;25037;49.488;9.900;2023-05-07T11:59:55;26.80;42.10
39325;DHT22;25037;49.488;9.900;2023-05-07T12:02:22;26.80;42.20
39325;DHT22;25037;49.488;9.900;2023-05-07T12:04:51;26.80;42.50
39325;DHT22;25037;49.488;9.900;2023-05-07T12:07:18;26.80;42.30
39325;DHT22;25037;49.488;9.900;2023-05-07T12:09:45;26.90;42.30
39325;DHT22;25037;49.488;9.900;2023-05-07T12:12:12;26.90;42.30
39325;DHT22;25037;49.488;9.900;2023-05-07T12:14:41;26.80;42.30
39325;DHT22;25037;49.488;9.900;2023-05-07T12:17:08;26.70;42.50
39325;DHT22;25037;49.488;9.900;2023-05-07T12:19:35;26.80;42.40
39325;DHT22;25037;49.488;9.900;2023-05-07T12:22:03;26.90;42.10
39325;DHT22;25037;49.488;9.900;2023-05-07T12:24:45;26.80;41.70
39325;DHT22;25037;49.488;9.900;2023-05-07T12:27:15;26.80;41.90
39325;DHT22;25037;49.488;9.900;2023-05-07T12:29:48;26.90;41.70
39325;DHT22;25037;49.488;9.900;2023-05-07T12:32:16;27.10;41.80
39325;DHT22;25037;49.488;9.900;2023-05-07T12:34:43;27.20;41.50
39325;DHT22;25037;49.488;9.900;2023-05-07T12:37:11;27.30;41.70
39325;DHT22;25037;49.488;9.900;2023-05-07T12:39:48;27.50;41.20
39325;DHT22;25037;49.488;9.900;2023-05-07T12:42:16;27.60;41.20
39325;DHT22;25037;49.488;9.900;2023-05-07T12:44:45;27.80;40.90
39325;DHT22;25037;49.488;9.900;2023-05-07T12:47:11;28.00;40.70
39325;DHT22;25037;49.488;9.900;2023-05-07T12:49:39;28.30;40.60
39325;DHT22;25037;49.488;9.900;2023-05-07T12:52:06;28.40;40.50
39325;DHT22;25037;49.488;9.900;2023-05-07T12:54:33;28.40;40.50
39325;DHT22;25037;49.488;9.900;2023-05-07T12:57:09;28.40;39.90
39325;DHT22;25037;49.488;9.900;2023-05-07T12:59:37;28.30;40.00
39325;DHT22;25037;49.488;9.900;2023-05-07T13:02:04;28.30;39.90
39325;DHT22;25037;49.488;9.900;2023-05-07T13:04:31;28.20;39.90
39325;DHT22;25037;49.488;9.900;2023-05-07T13:06:58;28.20;39.70
39325;DHT22;25037;49.488;9.900;2023-05-07T13:09:24;28.20;39.30
39325;DHT22;25037;49.488;9.900;2023-05-07T13:11:52;28.30;39.20
39325;DHT22;25037;49.488;9.900;2023-05-07T13:14:19;28.40;39.20
39325;DHT22;25037;49.488;9.900;2023-05-07T13:16:47;28.40;38.70
39325;DHT22;25037;49.488;9.900;2023-05-07T13:19:14;28.40;38.70
39325;DHT22;25037;49.488;9.900;2023-05-07T13:21:40;28.50;38.80
39325;DHT22;25037;49.488;9.900;2023-05-07T13:24:07;28.60;38.70
39325;DHT22;25037;49.488;9.900;2023-05-07T13:26:34;28.60;38.50
39325;DHT22;25037;49.488;9.900;2023-05-07T13:29:00;28.60;38.70
39325;DHT22;25037;49.488;9.900;2023-05-07T13:31:27;28.60;38.10
39325;DHT22;25037;49.488;9.900;2023-05-07T13:33:53;28.50;38.30
39325;DHT22;25037;49.488;9.900;2023-05-07T13:36:22;28.30;38.30
39325;DHT22;25037;49.488;9.900;2023-05-07T13:38:49;28.30;38.70
39325;DHT22;25037;49.488;9.900;2023-05-07T13:41:16;28.30;38.70
39325;DHT22;25037;49.488;9.900;2023-05-07T13:43:43;28.40;38.60
39325;DHT22;25037;49.488;9.900;2023-05-07T13:46:09;28.30;37.90
39325;DHT22;25037;49.488;9.900;2023-05-07T13:48:36;28.30;37.80
39325;DHT22;25037;49.488;9.900;2023-05-07T13:51:02;28.30;38.10
39325;DHT22;25037;49.488;9.900;2023-05-07T13:53:29;28.20;38.00
39325;DHT22;25037;49.488;9.900;2023-05-07T13:55:56;28.20;38.00
39325;DHT22;25037;49.488;9.900;2023-05-07T13:58:22;28.20;38.10
39325;DHT22;25037;49.488;9.900;2023-05-07T14:00:49;28.20;38.30
39325;DHT22;25037;49.488;9.900;2023-05-07T14:03:16;28.30;38.40
39325;DHT22;25037;49.488;9.900;2023-05-07T14:05:44;28.40;38.50
39325;DHT22;25037;49.488;9.900;2023-05-07T14:08:10;28.40;38.20
39325;DHT22;25037;49.488;9.900;2023-05-07T14:10:39;28.60;38.30
39325;DHT22;25037;49.488;9.900;2023-05-07T14:13:06;28.50;38.30
39325;DHT22;25037;49.488;9.900;2023-05-07T14:15:32;28.30;38.00
39325;DHT22;25037;49.488;9.900;2023-05-07T14:17:59;28.20;38.00
39325;DHT22;25037;49.488;9.900;2023-05-07T14:20:26;28.00;38.30
39325;DHT22;25037;49.488;9.900;2023-05-07T14:22:53;27.90;38.40
39325;DHT22;25037;49.488;9.900;2023-05-07T14:25:21;27.80;38.60
39325;DHT22;25037;49.488;9.900;2023-05-07T14:27:48;27.90;38.60
39325;DHT22;25037;49.488;9.900;2023-05-07T14:30:14;27.80;38.60
39325;DHT22;25037;49.488;9.900;2023-05-07T14:32:41;27.70;38.70
39325;DHT22;25037;49.488;9.900;2023-05-07T14:35:07;27.70;38.60
39325;DHT22;25037;49.488;9.900;2023-05-07T14:37:34;27.60;38.60
39325;DHT22;25037;49.488;9.900;2023-05-07T14:40:01;27.50;38.80
39325;DHT22;25037;49.488;9.900;2023-05-07T14:42:29;27.50;39.00
39325;DHT22;25037;49.488;9.900;2023-05-07T14:44:55;27.40;39.10
39325;DHT22;25037;49.488;9.900;2023-05-07T14:47:22;27.30;39.20
39325;DHT22;25037;49.488;9.900;2023-05-07T14:49:48;27.30;39.30
39325;DHT22;25037;49.488;9.900;2023-05-07T14:52:15;27.30;39.40
39325;DHT22;25037;49.488;9.900;2023-05-07T14:54:42;27.20;39.30
39325;DHT22;25037;49.488;9.900;2023-05-07T14:57:09;27.10;39.20
39325;DHT22;25037;49.488;9.900;2023-05-07T14:59:37;27.10;39.40
39325;DHT22;25037;49.488;9.900;2023-05-07T15:02:04;27.00;39.50
39325;DHT22;25037;49.488;9.900;2023-05-07T15:04:33;26.90;39.60
39325;DHT22;25037;49.488;9.900;2023-05-07T15:06:59;26.80;39.50
39325;DHT22;25037;49.488;9.900;2023-05-07T15:09:26;26.80;39.70
39325;DHT22;25037;49.488;9.900;2023-05-07T15:11:53;26.80;39.80
39325;DHT22;25037;49.488;9.900;2023-05-07T15:14:19;26.80;39.90
39325;DHT22;25037;49.488;9.900;2023-05-07T15:16:48;26.70;40.00
39325;DHT22;25037;49.488;9.900;2023-05-07T15:19:15;26.60;40.10
39325;DHT22;25037;49.488;9.900;2023-05-07T15:21:43;26.50;40.20
39325;DHT22;25037;49.488;9.900;2023-05-07T15:24:09;26.40;40.30
39325;DHT22;25037;49.488;9.900;2023-05-07T15:26:36;26.30;40.40
39325;DHT22;25037;49.488;9.900;2023-05-07T15:29:03;26.20;40.50
39325;DHT22;25037;49.488;9.900;2023-05-07T15:31:34;26.10;40.60
39325;DHT22;25037;49.488;9.900;2023-05-07T15:34:01;26.00;40.80
39325;DHT22;25037;49.488;9.900;2023-05-07T15:36:27;25.90;40.90
39325;DHT22;25037;49.488;9.900;2023-05-07T15:38:54;25.90;41.00
39325;DHT22;25037;49.488;9.900;2023-05-07T15:41:21;25.80;41.10
39325;DHT22;25037;49.488;9.900;2023-05-07T15:43:48;25.80;41.20
39325;DHT22;25037;49.488;9.900;2023-05-07T15:46:19;25.70;41.20
39325;DHT22;25037;49.488;9.900;2023-05-07T15:48:46;25.70;41.30
39325;DHT22;25037;49.488;9.900;2023-05-07T15:51:13;25.70;41.50
39325;DHT22;25037;49.488;9.900;2023-05-07T15:53:39;25.60;41.50